• Join FlightAware (Why Join?)
  • Login
  • US Flag 
06:49AM EST


 

Airport Tracker/Info


-or-


 

Live Flight TrackerFlight Track Log ✈ VH-HLS ✈ 17-Jul-2013 ✈ YPKG / KGI - YPJT / JAD

Flight Track Log - Related Links

Times and Time Zones

All times are in EDT time to prevent confusion due to time zone crossing. See the VH-HLS flight status page for this flight to view local times or setup timezone preferences in your user account.

Time Position Orientation Groundspeed Altitude Reporting Facility
EDT Latitude Longitude Course Direction KTS MPH feet Rate Location/Type
03:44AM -30.8339 121.2897 253° West 100  Level Aus ATC (Calculated)
03:45AM -30.8339 121.2897 253° West 100 60 Level Aus ATC (Calculated)
03:46AM -30.8339 121.2897 253° West 100 60 Level Aus ATC (Calculated)
03:48AM -30.8571 121.1996 253° West  Level FlightAware Approximate
03:48AM -30.8554 121.2063 253° West 100  Level Aus ATC (Calculated)
03:49AM -30.8689 121.1537 253° West  Level FlightAware Approximate
03:50AM -30.8736 121.1352 253° West  Level FlightAware Approximate
03:51AM -30.8854 121.0894 253° West  Level FlightAware Approximate
03:52AM -30.8971 121.0435 253° West  Level FlightAware Approximate
03:53AM -30.9088 120.9976 253° West  Level FlightAware Approximate
03:53AM -30.9185 120.9599 253° West 100  Level Aus ATC (Calculated)
03:53AM -30.9185 120.9599 253° West 100 120 Level Aus ATC (Calculated)
03:55AM -30.9324 120.9053 253° West  Level FlightAware Approximate
03:55AM -30.9384 120.8815 253° West 100  Level Aus ATC (Calculated)
03:57AM -30.9543 120.8190 253° West  Level FlightAware Approximate
03:58AM -30.9664 120.7714 254° West  Level FlightAware Approximate
03:59AM -30.9784 120.7239 254° West  Level FlightAware Approximate
04:00AM -30.9904 120.6764 254° West  Level FlightAware Approximate
04:01AM -31.0024 120.6288 254° West  Level FlightAware Approximate
04:02AM -31.0144 120.5812 254° West  Level FlightAware Approximate
04:03AM -31.0264 120.5336 254° West  Level FlightAware Approximate
04:03AM -31.0359 120.4953 254° West 100  Level Aus ATC (Calculated)
04:04AM -31.0383 120.4860 254° West  Level FlightAware Approximate
04:04AM -31.0359 120.4953 254° West 100  Level Aus ATC (Calculated)
04:04AM -31.0359 120.4953 254° West 100 120 Level Aus ATC (Calculated)
04:05AM -31.0537 120.4240 254° West 100 120 Level Aus ATC (Calculated)
04:05AM -31.0537 120.4240 254° West 100 120 Level Aus ATC (Calculated)
04:07AM -31.0662 120.3740 254° West  Level FlightAware Approximate
04:07AM -31.0712 120.3538 254° West 100  Level Aus ATC (Calculated)
04:08AM -31.0781 120.3264 254° West  Level FlightAware Approximate
04:08AM -31.0884 120.2847 254° West 100  Level Aus ATC (Calculated)
04:08AM -31.0884 120.2847 254° West 100 120 Level Aus ATC (Calculated)
04:09AM -31.0847 120.2998 254° West  Level FlightAware Approximate
04:10AM -31.1032 120.2251 254° West  Level FlightAware Approximate
04:11AM -31.1151 120.1774 254° West  Level FlightAware Approximate
04:12AM -31.1269 120.1297 254° West  Level FlightAware Approximate
04:13AM -31.1387 120.0820 254° West  Level FlightAware Approximate
04:14AM -31.1504 120.0343 254° West  Level FlightAware Approximate
04:15AM -31.1622 119.9866 254° West  Level FlightAware Approximate
04:16AM -31.1739 119.9389 254° West  Level FlightAware Approximate
04:17AM -31.1857 119.8911 254° West  Level FlightAware Approximate
04:18AM -31.1974 119.8433 254° West  Level FlightAware Approximate
04:19AM -31.2091 119.7956 254° West  Level FlightAware Approximate
04:20AM -31.2207 119.7478 254° West  Level FlightAware Approximate
04:21AM -31.2324 119.7000 254° West  Level FlightAware Approximate
04:22AM -31.2440 119.6522 254° West  Level FlightAware Approximate
04:23AM -31.2556 119.6044 254° West  Level FlightAware Approximate
04:24AM -31.2672 119.5565 254° West  Level FlightAware Approximate
04:25AM -31.2788 119.5087 254° West  Level FlightAware Approximate
04:26AM -31.2904 119.4609 254° West  Level FlightAware Approximate
04:27AM -31.3019 119.4130 254° West  Level FlightAware Approximate
04:28AM -31.3134 119.3651 254° West  Level FlightAware Approximate
04:29AM -31.3249 119.3172 254° West  Level FlightAware Approximate
04:30AM -31.3364 119.2693 254° West  Level FlightAware Approximate
04:31AM -31.3479 119.2214 254° West  Level FlightAware Approximate
04:32AM -31.3594 119.1735 254° West  Level FlightAware Approximate
04:33AM -31.3708 119.1255 254° West  Level FlightAware Approximate
04:34AM -31.3822 119.0776 254° West  Level FlightAware Approximate
04:35AM -31.3936 119.0296 254° West  Level FlightAware Approximate
04:36AM -31.4050 118.9817 254° West  Level FlightAware Approximate
04:37AM -31.4164 118.9337 254° West  Level FlightAware Approximate
04:38AM -31.4277 118.8857 254° West  Level FlightAware Approximate
04:38AM -31.4361 118.8503 254° West 100  Level Aus ATC (Calculated)
04:39AM -31.4391 118.8377 255° West  Level FlightAware Approximate
04:40AM -31.4512 118.7862 255° West  Level FlightAware Approximate
04:41AM -31.4625 118.7382 255° West  Level FlightAware Approximate
04:42AM -31.4738 118.6902 255° West  Level FlightAware Approximate
04:43AM -31.4850 118.6421 255° West  Level FlightAware Approximate
04:44AM -31.4963 118.5941 255° West  Level FlightAware Approximate
04:45AM -31.5075 118.5460 255° West  Level FlightAware Approximate
04:46AM -31.5187 118.4979 255° West  Level FlightAware Approximate
04:47AM -31.5299 118.4498 255° West  Level FlightAware Approximate
04:48AM -31.5411 118.4017 255° West  Level FlightAware Approximate
04:49AM -31.5522 118.3536 255° West  Level FlightAware Approximate
04:49AM -31.5653 118.2968 254° West 100  Level Aus ATC (Calculated)
04:51AM -31.5824 118.2230 255° West  Level FlightAware Approximate
04:51AM -31.5826 118.2217 254° West 100  Level Aus ATC (Calculated)
04:53AM -31.6025 118.1350 255° West  Level FlightAware Approximate
04:54AM -31.6136 118.0868 255° West  Level FlightAware Approximate
04:55AM -31.6246 118.0386 255° West  Level FlightAware Approximate
04:55AM -31.6826 117.8059 255° West 173 199 8,200  Level Aus ATC (RADAR)
04:58AM -31.7158 117.6626 255° West 162 186 8,200  Level Aus ATC (RADAR)
04:59AM -31.7291 117.6102 253° West 165 190 8,200  Level Aus ATC (RADAR)
05:00AM -31.7374 117.5791 253° West 168 193 8,200  Level Aus ATC (RADAR)
05:00AM -31.7431 117.5536 255° West 161 185 8,200  Level Aus ATC (RADAR)
05:01AM -31.7518 117.5189 254° West 165 190 8,200  Level Aus ATC (RADAR)
05:02AM -31.7615 117.4703 257° West 163 188 8,200  Level Aus ATC (RADAR)
05:03AM -31.7705 117.4261 256° West 163 188 8,200  Level Aus ATC (RADAR)
05:03AM -31.7792 117.3961 251° West 162 186 8,200  Level Aus ATC (RADAR)
05:04AM -31.7891 117.3566 253° West 164 189 8,200  Level Aus ATC (RADAR)
05:05AM -31.7995 117.3032 257° West 165 190 8,200  Level Aus ATC (RADAR)
05:06AM -31.8059 117.2623 260° West 165 190 8,200  Level Aus ATC (RADAR)
05:06AM -31.8127 117.2261 258° West 167 192 8,200  Level Aus ATC (RADAR)
05:07AM -31.8269 117.1783 251° West 164 189 8,200  Level Aus ATC (RADAR)
05:08AM -31.8457 117.1233 248° West 167 192 8,200  Level Aus ATC (RADAR)
05:09AM -31.8501 117.0817 263° West 167 192 8,200  Level Aus ATC (RADAR)
05:10AM -31.8559 117.0493 258° West 168 193 8,200  Level Aus ATC (RADAR)
05:10AM -31.8636 117.0177 254° West 169 194 8,200  Level Aus ATC (RADAR)
05:11AM -31.8712 116.9820 256° West 166 191 8,200  Level Aus ATC (RADAR)
05:11AM -31.8774 116.9501 257° West 167 192 8,200  Level Aus ATC (RADAR)
05:12AM -31.8871 116.9095 254° West 168 193 8,200  Level Aus ATC (RADAR)
05:13AM -31.9008 116.8453 256° West 171 197 8,200  Level Aus ATC (RADAR)
05:14AM -31.9064 116.8130 258° West 170 196 8,200  Level Aus ATC (RADAR)
05:15AM -31.9141 116.7758 256° West 170 196 8,200 -120 Level Aus ATC (RADAR)
05:15AM -31.9230 116.7296 257° West 171 197 8,100 -60 Descending Aus ATC (RADAR)
05:16AM -31.9354 116.6744 255° West 171 197 8,100 -180 Level Aus ATC (RADAR)
05:17AM -31.9452 116.6277 256° West 174 200 7,800 -480 Descending Aus ATC (RADAR)
05:18AM -31.9532 116.5936 254° West 178 205 7,500 -540 Descending Aus ATC (RADAR)
05:19AM -31.9680 116.5292 255° West 183 211 6,900 -480 Descending Aus ATC (RADAR)
05:20AM -31.9803 116.4699 256° West 182 209 6,500 -540 Descending Aus ATC (RADAR)
05:21AM -31.9898 116.4250 256° West 183 211 6,000 -780 Descending Aus ATC (RADAR)
05:21AM -31.9941 116.3890 262° West 186 214 5,500 -900 Descending Aus ATC (RADAR)
05:22AM -31.9959 116.3521 267° West 186 214 5,000 -720 Descending Aus ATC (RADAR)
05:22AM -32.0118 116.3164 242° Southwest 183 211 4,600 -720 Descending Aus ATC (RADAR)
05:23AM -32.0398 116.2955 212° Southwest 177 204 4,100 -840 Descending Aus ATC (RADAR)
05:24AM -32.0687 116.2668 220° Southwest 180 207 3,500 -720 Descending Aus ATC (RADAR)
05:24AM -32.0852 116.2443 229° Southwest 180 207 3,200 -480 Descending Aus ATC (RADAR)
05:25AM -32.1053 116.2126 233° Southwest 177 204 3,000 -240 Descending Aus ATC (RADAR)
05:26AM -32.1270 116.1782 233° Southwest 172 198 2,900 -420 Descending Aus ATC (RADAR)
05:30AM -32.1597 115.9306 360° North 2,000 -240 Descending Aus ATC (Calculated)
05:30AM -32.1597 115.9306 360° North 2,000  Level Aus ATC (Calculated)
05:31AM -32.1597 115.9306 326° Northwest 2,000  Level Aus ATC (Calculated)
05:32AM -32.1221 115.9007 326° Northwest  Level FlightAware Approximate
05:32AM -32.1286 115.9059 326° Northwest 100  Level Aus ATC (Calculated)